This is the latest recevied weather packets stored in our database for station/object KB1JLI. If no packets are shown the sender has not sent any weather packets the latest 10 day(s).
| Time | Temp. | Humidity | Pressure | Rain* | Wind** | Luminosity | Snow |
|---|---|---|---|---|---|---|---|
| 1778015934 | 26.11° C | 42% | 1005.6 hPa | 0 mm | - | 68 W/m² | - |
| 1778015632 | 26.11° C | 41% | 1005.5 hPa | 0 mm | - | 71 W/m² | - |
| 1778015328 | 26.11° C | 42% | 1005.5 hPa | 0 mm | - | 80 W/m² | - |
| 1778015025 | 26.11° C | 42% | 1005.5 hPa | 0 mm | - | 83 W/m² | - |
| 1778014722 | 26.11° C | 42% | 1005.3 hPa | 0 mm | - | 77 W/m² | - |
| 1778014420 | 26.11° C | 41% | 1005.4 hPa | 0 mm | - | 79 W/m² | - |
| 1778014117 | 26.67° C | 41% | 1005.4 hPa | 0 mm | - | 82 W/m² | - |
| 1778013815 | 26.67° C | 41% | 1005.4 hPa | 0 mm | - | 90 W/m² | - |
| 1778013512 | 26.67° C | 41% | 1005.2 hPa | 0 mm | - | 132 W/m² | - |
| 1778013208 | 26.67° C | 41% | 1005.2 hPa | 0 mm | - | 136 W/m² | - |
| 1778012904 | 26.67° C | 40% | 1005.4 hPa | 0 mm | - | 191 W/m² | - |
| 1778012601 | 27.22° C | 40% | 1005.3 hPa | 0 mm | - | 76 W/m² | - |
| 1778012297 | 27.22° C | 39% | 1005.5 hPa | 0 mm | - | 188 W/m² | - |
| 1778011995 | 27.22° C | 39% | 1005.4 hPa | 0 mm | - | 241 W/m² | - |
| 1778011693 | 27.22° C | 39% | 1005.1 hPa | 0 mm | - | 263 W/m² | - |
| 1778011390 | 27.78° C | 39% | 1005.6 hPa | 0 mm | - | 370 W/m² | - |
| 1778011085 | 27.78° C | 39% | 1005.5 hPa | 0 mm | - | 384 W/m² | - |
| 1778010783 | 27.78° C | 38% | 1005.4 hPa | 0 mm | - | 425 W/m² | - |
| 1778010480 | 27.78° C | 38% | 1005.6 hPa | 0 mm | - | 461 W/m² | - |
| 1778010177 | 28.33° C | 38% | 1005.3 hPa | 0 mm | - | 358 W/m² | - |
| 1778009877 | 27.78° C | 39% | 1005.6 hPa | 0 mm | - | 467 W/m² | - |
| 1778009575 | 27.78° C | 40% | 1005.7 hPa | 0 mm | - | 479 W/m² | - |
| 1778009273 | 27.22° C | 40% | 1005.8 hPa | 0 mm | - | 481 W/m² | - |
| 1778008971 | 27.22° C | 39% | 1005.8 hPa | 0 mm | - | 467 W/m² | - |
| 1778008669 | 27.78° C | 40% | 1005.7 hPa | 0 mm | - | 506 W/m² | - |
* Rain latest hour (hover to see other rain measurements)
** Current wind speed in m/s (hover to see current wind gust speed)